EDT,Max TemperatureF,Mean TemperatureF,Min TemperatureF,Max Dew PointF,MeanDew PointF,Min DewpointF,Max Humidity, Mean Humidity, Min Humidity, Max Sea Level PressureIn, Mean Sea Level PressureIn, Min Sea Level PressureIn, Max VisibilityMiles, Mean VisibilityMiles, Min VisibilityMiles, Max Wind SpeedMPH, Mean Wind SpeedMPH, Max Gust SpeedMPH,PrecipitationIn, CloudCover, Events, WindDirDegrees
2013-3-1,48,40,33,28,25,23,70,51,39,29.96,29.92,29.86,10,10,10,10,5,,0.00,6,,355
2013-3-2,44,40,33,34,29,19,93,69,47,29.96,29.90,29.86,10,10,9,12,7,17,0.00,7,Rain-Snow,349
2013-3-3,46,37,28,20,16,13,63,46,27,30.04,29.97,29.91,10,10,10,12,6,16,0.00,0,,345
2013-3-4,55,40,25,23,14,9,63,36,18,30.18,30.10,30.05,10,10,10,14,5,18,0.00,0,,314
2013-3-5,54,48,42,46,40,24,96,76,42,30.07,29.81,29.67,10,7,2,20,5,28,0.53,6,Rain-Thunderstorm,284
2013-3-6,48,41,34,27,22,16,65,51,33,30.13,29.92,29.73,10,10,10,20,14,28,0.00,1,,312
2013-3-7,57,42,28,26,25,24,82,52,28,30.26,30.20,30.14,10,10,10,9,4,,0.00,0,,350
2013-3-8,62,45,28,24,18,6,75,40,12,30.33,30.27,30.19,10,10,10,13,6,20,0.00,0,,34
2013-3-9,63,50,36,31,24,21,57,38,23,30.37,30.29,30.24,10,10,10,8,3,,0.00,0,,69
2013-3-10,66,56,45,36,32,29,60,42,25,30.30,30.22,30.16,10,10,10,8,2,,0.00,0,,134
2013-3-11,68,58,50,55,46,36,100,72,51,30.16,30.01,29.83,10,9,2,16,6,24,0.65,7,Rain,163
2013-3-12,69,59,48,56,46,28,100,71,30,30.02,29.85,29.75,10,9,5,14,7,,0.12,5,Rain,250
2013-3-13,57,47,37,30,22,14,73,40,19,30.19,30.08,30.01,10,10,10,17,5,26,0.00,0,,286
2013-3-14,53,42,32,21,14,7,50,35,20,30.32,30.23,30.18,10,10,10,17,10,24,0.00,0,,335
2013-3-15,72,52,33,39,27,13,64,38,23,30.21,30.09,29.93,10,10,10,20,7,26,0.00,0,,241
2013-3-16,79,68,57,44,40,37,53,39,27,29.93,29.87,29.77,10,10,10,23,12,36,0.00,0,,232
2013-3-17,78,66,50,49,43,38,68,47,31,30.05,29.93,29.88,10,10,10,20,8,24,0.00,1,,236
2013-3-18,48,44,39,41,39,37,96,88,71,30.10,30.00,29.89,10,6,1,16,11,24,0.51,8,Rain-Thunderstorm,44
2013-3-19,69,55,42,45,34,14,100,67,12,30.06,29.94,29.86,10,5,0,21,5,29,0.00,3,Fog,284
2013-3-20,59,50,44,18,11,6,33,22,16,30.11,29.98,29.83,10,10,10,15,9,25,0.00,2,,297
2013-3-21,52,42,32,25,13,3,69,37,16,29.97,29.87,29.81,10,10,10,14,5,22,0.00,0,,29
2013-3-22,48,39,30,24,16,12,50,38,27,30.10,30.04,29.98,10,10,10,12,4,,0.00,5,,217
2013-3-23,50,46,41,45,39,27,93,80,49,30.04,29.97,29.90,10,9,4,7,4,,0.08,7,Rain,95
2013-3-24,46,44,41,43,41,37,93,89,76,29.91,29.70,29.57,10,6,2,22,10,31,1.05,8,Rain-Thunderstorm,49
2013-3-25,46,40,34,40,26,16,92,58,35,29.96,29.72,29.57,10,10,7,21,11,32,0.01,6,Rain,257
2013-3-26,50,39,30,23,21,18,72,50,29,30.22,30.05,29.95,10,10,10,15,8,23,0.00,4,,313
2013-3-27,55,42,28,24,21,17,78,45,23,30.29,30.23,30.17,10,10,10,15,5,16,0.00,0,,333
2013-3-28,61,46,32,26,20,14,66,40,16,30.33,30.27,30.18,10,10,10,9,3,,0.00,0,Rain,3
2013-3-29,61,48,34,38,26,20,67,44,21,30.35,30.29,30.22,10,10,10,12,3,,0.00,4,,272
2013-3-30,68,56,46,43,39,35,83,55,32,30.22,30.15,30.05,10,10,10,9,4,,0.00,4,Rain,102
2013-3-31,70,60,51,55,51,47,97,81,49,30.05,29.93,29.85,10,7,3,20,6,30,0.53,7,Rain,219